Time;durP1;ratioP1;P1;durP2;ratioP2;P2;SDS_P1;SDS_P2;PMS_P1;PMS_P2;Temp;Humidity;BMP_temperature;BMP_pressure;BME280_temperature;BME280_humidity;BME280_pressure;Samples;Min_cycle;Max_cycle;Signal;HPM_P1;HPM_P2
2022/01/21 00:01:37;;;;;;;3.77;1.30;;;7.40;99.90;;;;;;5023580;28;20225;-67
2022/01/21 00:04:07;;;;;;;2.07;1.30;;;7.30;99.90;;;;;;5057657;28;20206;-66
2022/01/21 00:06:33;;;;;;;2.70;1.43;;;7.30;99.90;;;;;;5026383;28;20202;-65
2022/01/21 00:09:00;;;;;;;4.17;1.20;;;7.30;99.90;;;;;;5043538;28;20198;-66
2022/01/21 00:11:30;;;;;;;2.43;1.47;;;7.30;99.90;;;;;;5032982;28;20241;-65
2022/01/21 00:13:58;;;;;;;4.07;1.50;;;7.20;99.90;;;;;;5029011;28;20188;-65
2022/01/21 00:16:27;;;;;;;3.80;1.33;;;7.20;99.90;;;;;;5044377;28;20187;-66
2022/01/21 00:19:02;;;;;;;1.70;1.33;;;7.30;99.90;;;;;;5044568;28;20988;-67
2022/01/21 00:32:34;;;;;;;1.63;1.40;;;7.30;99.90;;;;;;5050126;28;20238;-66
2022/01/21 00:35:01;;;;;;;4.77;1.40;;;7.30;99.90;;;;;;5043732;28;20188;-68
2022/01/21 00:37:27;;;;;;;2.60;1.30;;;7.30;99.90;;;;;;5047163;28;20207;-69
2022/01/21 00:39:57;;;;;;;4.73;1.50;;;7.30;99.90;;;;;;5046474;28;20219;-68
2022/01/21 00:42:48;;;;;;;1.80;1.30;;;7.30;99.90;;;;;;5058392;28;20192;-65
2022/01/21 00:45:16;;;;;;;4.90;1.40;;;7.30;99.90;;;;;;5024420;28;20187;-64
2022/01/21 00:47:44;;;;;;;2.47;1.23;;;7.20;99.90;;;;;;5026484;28;20551;-68
2022/01/21 00:50:13;;;;;;;1.90;1.20;;;7.20;99.90;;;;;;5059515;28;20195;-67
2022/01/21 00:52:40;;;;;;;2.97;1.20;;;7.20;99.90;;;;;;5060175;28;20306;-67
2022/01/21 00:55:10;;;;;;;5.17;1.43;;;7.20;99.90;;;;;;5062780;28;20187;-65
2022/01/21 00:57:37;;;;;;;3.67;1.47;;;7.20;99.90;;;;;;5027908;28;20191;-66
2022/01/21 01:00:09;;;;;;;2.70;1.37;;;7.20;99.90;;;;;;5038776;28;20290;-65
2022/01/21 01:02:37;;;;;;;4.23;1.53;;;7.20;99.90;;;;;;5043873;28;20254;-66
2022/01/21 01:05:06;;;;;;;5.50;1.30;;;7.20;99.90;;;;;;5026611;28;20198;-67
2022/01/21 01:07:32;;;;;;;2.70;1.23;;;7.10;99.90;;;;;;5028442;28;20191;-66
2022/01/21 01:10:01;;;;;;;3.43;1.70;;;7.10;99.90;;;;;;5057003;28;20277;-67
2022/01/21 01:12:49;;;;;;;2.57;1.50;;;7.00;99.90;;;;;;5044167;28;20939;-65
2022/01/21 01:20:49;;;;;;;3.00;1.40;;;7.00;99.90;;;;;;5005517;28;20230;-67
2022/01/21 01:28:36;;;;;;;3.10;1.47;;;7.00;99.90;;;;;;5043600;28;20211;-66
2022/01/21 01:31:02;;;;;;;1.53;1.23;;;7.00;99.90;;;;;;5038815;28;20310;-67
2022/01/21 01:33:36;;;;;;;2.57;1.50;;;7.00;99.90;;;;;;5051862;28;20198;-65
2022/01/21 01:36:06;;;;;;;3.07;1.33;;;6.90;99.90;;;;;;5059203;28;20209;-66
2022/01/21 01:39:13;;;;;;;2.57;1.27;;;6.80;99.90;;;;;;5031537;28;20203;-67
2022/01/21 01:41:31;;;;;;;1.77;1.13;;;6.80;99.90;;;;;;5025205;28;20346;-64
2022/01/21 01:49:38;;;;;;;1.93;1.30;;;6.60;99.90;;;;;;5044349;28;20187;-67
2022/01/21 01:52:15;;;;;;;4.33;1.33;;;6.60;99.90;;;;;;5031355;28;20210;-68
2022/01/21 01:54:53;;;;;;;2.17;1.30;;;6.60;99.90;;;;;;5047189;28;20227;-68
2022/01/21 01:57:20;;;;;;;2.40;1.27;;;6.60;99.90;;;;;;5041466;28;20214;-66
2022/01/21 01:59:47;;;;;;;3.07;1.40;;;6.50;99.90;;;;;;5057341;28;20315;-65
2022/01/21 02:02:18;;;;;;;3.20;1.43;;;6.60;99.90;;;;;;5056609;28;20188;-69
2022/01/21 02:04:47;;;;;;;2.00;1.27;;;6.50;99.90;;;;;;5023169;28;20279;-66
2022/01/21 02:07:13;;;;;;;2.70;1.23;;;6.50;99.90;;;;;;5030478;28;20195;-65
2022/01/21 02:09:40;;;;;;;2.80;1.40;;;6.50;99.90;;;;;;5046687;28;20199;-66
2022/01/21 02:12:08;;;;;;;3.63;1.23;;;6.60;99.90;;;;;;5063630;28;20218;-66
2022/01/21 02:14:38;;;;;;;1.77;1.10;;;6.60;99.90;;;;;;5046270;28;20210;-65
2022/01/21 02:22:42;;;;;;;2.30;1.20;;;6.50;99.90;;;;;;5062835;28;20624;-65
2022/01/21 02:25:27;;;;;;;3.43;1.13;;;6.40;99.90;;;;;;5048157;28;20191;-70
2022/01/21 02:27:58;;;;;;;5.60;1.40;;;6.30;99.90;;;;;;5038599;28;20215;-67
2022/01/21 02:30:26;;;;;;;1.70;1.00;;;6.30;99.90;;;;;;5027945;28;20258;-67
2022/01/21 02:32:56;;;;;;;2.30;1.00;;;6.30;99.90;;;;;;5046568;28;20219;-66
2022/01/21 02:35:25;;;;;;;4.20;1.27;;;6.30;99.90;;;;;;5048163;28;20321;-66
2022/01/21 02:37:52;;;;;;;7.07;1.47;;;6.30;99.90;;;;;;5029306;28;20199;-67
2022/01/21 02:40:19;;;;;;;2.40;1.10;;;6.30;99.90;;;;;;5035685;28;20216;-65
2022/01/21 02:42:45;;;;;;;1.77;1.13;;;6.30;99.90;;;;;;5046748;28;20285;-64
2022/01/21 02:45:14;;;;;;;2.33;1.33;;;6.30;99.90;;;;;;5029031;28;20198;-64
2022/01/21 02:47:44;;;;;;;5.27;2.00;;;6.30;99.90;;;;;;5053973;28;20202;-66
2022/01/21 02:50:10;;;;;;;2.93;1.23;;;6.40;99.90;;;;;;5032765;28;20277;-66
2022/01/21 02:52:42;;;;;;;3.63;1.30;;;6.40;99.90;;;;;;5055294;28;20213;-65
2022/01/21 02:55:10;;;;;;;3.17;1.30;;;6.40;99.90;;;;;;5045985;28;20644;-66
2022/01/21 02:57:36;;;;;;;2.37;1.30;;;6.40;99.90;;;;;;5062100;28;20532;-64
2022/01/21 03:00:05;;;;;;;3.17;1.17;;;6.50;99.90;;;;;;5050549;28;20222;-66
2022/01/21 03:02:32;;;;;;;2.27;1.30;;;6.50;99.90;;;;;;5062263;28;20191;-67
2022/01/21 03:05:05;;;;;;;2.90;1.20;;;6.60;99.90;;;;;;5062548;28;20200;-65
2022/01/21 03:07:31;;;;;;;1.83;1.20;;;6.60;99.90;;;;;;5011490;28;20195;-67
2022/01/21 03:09:57;;;;;;;2.87;1.30;;;6.60;99.90;;;;;;5051838;28;20196;-66
2022/01/21 03:12:24;;;;;;;2.00;1.30;;;6.60;99.90;;;;;;5062658;28;20196;-68
2022/01/21 03:14:50;;;;;;;2.03;1.10;;;6.50;99.90;;;;;;5039860;28;20199;-67
2022/01/21 03:17:17;;;;;;;1.10;1.00;;;6.50;99.90;;;;;;5037886;28;20285;-66
2022/01/21 03:19:43;;;;;;;1.43;1.13;;;6.50;99.90;;;;;;5061355;28;20687;-65
2022/01/21 03:22:09;;;;;;;3.97;1.27;;;6.40;99.90;;;;;;5048956;28;20222;-65
2022/01/21 03:24:35;;;;;;;3.03;1.37;;;6.40;99.90;;;;;;5045308;28;20188;-66
2022/01/21 03:27:02;;;;;;;2.33;1.40;;;6.40;99.90;;;;;;5061027;28;20257;-66
2022/01/21 03:29:28;;;;;;;3.63;1.27;;;6.40;99.90;;;;;;5048874;28;20318;-65
2022/01/21 03:31:54;;;;;;;2.50;1.00;;;6.40;99.90;;;;;;5058700;28;20199;-68
2022/01/21 03:34:21;;;;;;;2.67;1.30;;;6.30;99.90;;;;;;5044464;28;20789;-69
2022/01/21 03:36:47;;;;;;;1.83;1.43;;;6.30;99.90;;;;;;5046259;28;20623;-66
2022/01/21 03:39:14;;;;;;;2.60;1.17;;;6.30;99.90;;;;;;5027514;28;20225;-64
2022/01/21 03:41:40;;;;;;;2.07;1.13;;;6.30;99.90;;;;;;5047440;28;20721;-65
2022/01/21 03:44:06;;;;;;;2.37;1.30;;;6.30;99.90;;;;;;5060467;28;20658;-65
2022/01/21 03:46:33;;;;;;;3.10;1.27;;;6.40;99.90;;;;;;5045028;28;20192;-65
2022/01/21 03:48:59;;;;;;;2.63;1.10;;;6.40;99.90;;;;;;5028751;28;20195;-68
2022/01/21 03:51:26;;;;;;;3.70;1.20;;;6.40;99.90;;;;;;5046572;28;20215;-66
2022/01/21 03:53:52;;;;;;;2.00;1.03;;;6.50;99.90;;;;;;5040988;28;20195;-67
2022/01/21 03:56:18;;;;;;;3.50;1.30;;;6.50;99.90;;;;;;5043799;28;20447;-66
2022/01/21 03:58:45;;;;;;;3.73;1.33;;;6.60;99.90;;;;;;5046573;28;20610;-66
2022/01/21 04:01:12;;;;;;;2.23;1.07;;;6.60;99.90;;;;;;5035746;28;20249;-64
2022/01/21 04:03:38;;;;;;;3.10;1.30;;;6.60;99.90;;;;;;5044611;28;20524;-64
2022/01/21 04:06:05;;;;;;;1.67;1.10;;;6.60;99.90;;;;;;5027268;28;20545;-65
2022/01/21 04:08:31;;;;;;;3.37;1.00;;;6.60;99.90;;;;;;5028975;28;20179;-65
2022/01/21 04:10:57;;;;;;;2.90;1.20;;;6.70;99.90;;;;;;5062693;28;20186;-66
2022/01/21 04:13:27;;;;;;;2.10;1.13;;;6.70;99.90;;;;;;5061108;28;20245;-68
2022/01/21 04:15:57;;;;;;;6.03;1.40;;;6.60;99.90;;;;;;5064970;28;20233;-64
2022/01/21 04:18:24;;;;;;;5.03;1.33;;;6.60;99.90;;;;;;5053950;28;20221;-65
2022/01/21 04:20:54;;;;;;;4.20;1.17;;;6.60;99.90;;;;;;5061265;28;20210;-64
2022/01/21 04:23:40;;;;;;;4.97;1.30;;;6.60;99.90;;;;;;5006056;28;20200;-66
2022/01/21 04:26:07;;;;;;;2.50;1.20;;;6.50;99.90;;;;;;5009920;28;20290;-64
2022/01/21 04:28:33;;;;;;;1.60;1.13;;;6.40;99.90;;;;;;5005385;28;20565;-64
2022/01/21 04:31:00;;;;;;;3.73;2.50;;;6.40;99.90;;;;;;5024433;28;20634;-64
2022/01/21 04:33:26;;;;;;;13.47;5.20;;;6.40;99.90;;;;;;5023561;28;20188;-66
2022/01/21 04:35:53;;;;;;;21.10;12.30;;;6.40;99.90;;;;;;5022191;28;20239;-67
2022/01/21 04:38:22;;;;;;;23.20;13.10;;;6.40;99.90;;;;;;4996868;28;20286;-66
2022/01/21 04:41:00;;;;;;;6.27;4.07;;;6.40;99.90;;;;;;5020256;28;20192;-64
2022/01/21 04:48:56;;;;;;;2.00;1.40;;;6.30;99.90;;;;;;5006231;28;20267;-64
2022/01/21 04:51:28;;;;;;;3.67;1.87;;;6.30;99.90;;;;;;5020699;28;20612;-68
2022/01/21 04:53:55;;;;;;;6.87;1.60;;;6.20;99.90;;;;;;5032967;28;20609;-64
2022/01/21 04:56:24;;;;;;;2.50;1.40;;;6.20;99.90;;;;;;5023051;28;20199;-65
2022/01/21 04:58:53;;;;;;;4.57;1.40;;;6.20;99.90;;;;;;5023718;28;20361;-67
2022/01/21 05:01:19;;;;;;;4.40;1.40;;;6.20;99.90;;;;;;5028599;28;20242;-65
2022/01/21 05:03:46;;;;;;;3.00;1.40;;;6.30;99.90;;;;;;5060444;28;20326;-63
2022/01/21 05:06:13;;;;;;;6.23;1.50;;;6.20;99.90;;;;;;5036490;28;20649;-62
2022/01/21 05:08:51;;;;;;;3.83;1.50;;;6.20;99.90;;;;;;5026224;28;20175;-62
2022/01/21 05:11:18;;;;;;;2.90;1.20;;;6.20;99.90;;;;;;5047756;28;20932;-64
2022/01/21 05:13:54;;;;;;;1.90;1.50;;;6.30;99.90;;;;;;5047351;28;20667;-65
2022/01/21 05:16:38;;;;;;;2.43;1.30;;;6.30;99.90;;;;;;5059458;28;20198;-65
2022/01/21 05:19:14;;;;;;;3.43;1.40;;;6.30;99.90;;;;;;5049894;28;20210;-64
2022/01/21 05:21:41;;;;;;;1.53;1.13;;;6.40;99.90;;;;;;5023847;28;20199;-65
2022/01/21 05:24:08;;;;;;;2.53;1.30;;;6.50;99.90;;;;;;5050273;28;20309;-64
2022/01/21 05:26:39;;;;;;;3.43;1.50;;;6.50;99.90;;;;;;5056363;28;20597;-63
2022/01/21 05:29:09;;;;;;;3.30;1.70;;;6.60;99.90;;;;;;5039287;28;20203;-62
2022/01/21 05:31:36;;;;;;;5.23;1.73;;;6.60;99.90;;;;;;5018379;28;20184;-62
2022/01/21 05:34:03;;;;;;;3.47;1.40;;;6.70;99.90;;;;;;5052606;28;20676;-63
2022/01/21 05:36:31;;;;;;;3.47;1.60;;;6.80;99.90;;;;;;5056005;28;20191;-64
2022/01/21 05:39:00;;;;;;;2.93;1.13;;;6.90;99.90;;;;;;5060452;28;20628;-66
2022/01/21 05:41:27;;;;;;;3.83;1.23;;;6.90;99.90;;;;;;5063369;28;20616;-65
2022/01/21 05:44:04;;;;;;;2.90;1.57;;;7.00;99.90;;;;;;5047187;28;20241;-64
2022/01/21 05:49:15;;;;;;;9.33;2.00;;;7.00;99.90;;;;;;5054786;28;20180;-64
2022/01/21 05:51:43;;;;;;;1.53;1.30;;;7.10;99.90;;;;;;5058345;28;20204;-65
2022/01/21 05:54:09;;;;;;;7.53;1.70;;;7.20;99.90;;;;;;5038354;28;20535;-64
2022/01/21 05:56:37;;;;;;;3.73;1.93;;;7.20;99.90;;;;;;5023640;28;20584;-63
2022/01/21 05:59:06;;;;;;;2.00;1.50;;;7.30;99.90;;;;;;5041303;28;20187;-63
2022/01/21 06:01:34;;;;;;;2.33;1.40;;;7.30;99.90;;;;;;5047100;28;20203;-64
2022/01/21 06:04:02;;;;;;;2.23;1.20;;;7.40;99.90;;;;;;5047632;28;20643;-64
2022/01/21 06:06:30;;;;;;;3.63;1.30;;;7.40;99.90;;;;;;5049883;28;20188;-65
2022/01/21 06:08:57;;;;;;;4.03;1.27;;;7.50;99.90;;;;;;5040504;28;20269;-63
2022/01/21 06:11:23;;;;;;;2.47;1.43;;;7.60;99.90;;;;;;5036841;28;20262;-63
2022/01/21 06:13:50;;;;;;;2.60;1.13;;;7.60;99.90;;;;;;5045294;28;20200;-63
2022/01/21 06:16:18;;;;;;;3.53;1.70;;;7.60;99.90;;;;;;5064801;28;20191;-64
2022/01/21 06:18:45;;;;;;;2.30;1.47;;;7.70;99.90;;;;;;5062046;28;20186;-63
2022/01/21 06:21:12;;;;;;;2.97;1.40;;;7.70;99.90;;;;;;5064371;28;20203;-64
2022/01/21 06:23:39;;;;;;;6.40;1.50;;;7.70;99.90;;;;;;5060746;28;20517;-65
2022/01/21 06:26:05;;;;;;;2.17;1.50;;;7.70;99.90;;;;;;5017878;28;20238;-64
2022/01/21 06:28:34;;;;;;;2.83;1.20;;;7.80;99.90;;;;;;5045151;28;20214;-64
2022/01/21 06:31:01;;;;;;;4.40;1.47;;;7.80;99.90;;;;;;5045122;28;20290;-63
2022/01/21 06:33:27;;;;;;;5.07;1.50;;;7.80;99.90;;;;;;5062984;28;20645;-65
2022/01/21 06:35:54;;;;;;;2.80;1.37;;;7.80;99.90;;;;;;5031227;28;20344;-65
2022/01/21 06:38:21;;;;;;;5.17;1.57;;;7.80;99.90;;;;;;5029346;28;20199;-65
2022/01/21 06:40:50;;;;;;;2.80;1.43;;;7.80;99.90;;;;;;5047274;28;20710;-65
2022/01/21 06:43:17;;;;;;;1.87;1.30;;;7.80;99.90;;;;;;5035366;28;20785;-63
2022/01/21 06:45:43;;;;;;;2.93;1.20;;;7.80;99.90;;;;;;5030622;28;20179;-64
2022/01/21 06:48:10;;;;;;;2.87;1.40;;;7.80;99.90;;;;;;5046265;28;20511;-66
2022/01/21 06:50:40;;;;;;;4.00;1.67;;;7.90;99.90;;;;;;5047354;28;20191;-65
2022/01/21 06:53:07;;;;;;;3.20;1.70;;;7.80;99.90;;;;;;5040081;28;20197;-64
2022/01/21 06:55:34;;;;;;;3.43;1.50;;;7.80;99.90;;;;;;5021865;28;20198;-64
2022/01/21 06:58:04;;;;;;;2.27;1.37;;;7.90;99.90;;;;;;5030422;28;20183;-65
2022/01/21 07:00:30;;;;;;;2.13;1.40;;;7.90;99.90;;;;;;5060413;28;20204;-64
2022/01/21 07:02:57;;;;;;;5.23;2.00;;;7.80;99.90;;;;;;5036728;28;20573;-65
2022/01/21 07:05:25;;;;;;;4.43;1.63;;;7.80;99.90;;;;;;5030018;28;20194;-64
2022/01/21 07:07:54;;;;;;;3.63;1.50;;;7.90;99.90;;;;;;5029239;28;20249;-64
2022/01/21 07:10:20;;;;;;;4.70;1.63;;;7.90;99.90;;;;;;5062152;28;20203;-65
2022/01/21 07:12:49;;;;;;;5.77;1.70;;;7.90;99.90;;;;;;5043643;28;20187;-64
2022/01/21 07:15:18;;;;;;;6.63;1.70;;;7.90;99.90;;;;;;5061010;28;20188;-65
2022/01/21 07:17:45;;;;;;;2.00;1.40;;;7.90;99.90;;;;;;5051228;28;20195;-63
2022/01/21 07:20:12;;;;;;;4.60;1.60;;;8.00;99.90;;;;;;5053262;28;20238;-64
2022/01/21 07:22:39;;;;;;;2.57;1.63;;;8.00;99.90;;;;;;5041778;28;20715;-64
2022/01/21 07:25:07;;;;;;;4.07;1.60;;;8.00;99.90;;;;;;5050939;28;20179;-64
2022/01/21 07:27:33;;;;;;;3.17;1.40;;;8.10;99.90;;;;;;5029223;28;20187;-64
2022/01/21 07:30:02;;;;;;;2.30;1.47;;;8.10;99.90;;;;;;5044939;28;20183;-64
2022/01/21 07:32:29;;;;;;;4.20;1.60;;;8.10;99.90;;;;;;5060927;28;20731;-65
2022/01/21 07:34:55;;;;;;;2.20;1.60;;;8.20;99.90;;;;;;5040682;28;20237;-67
2022/01/21 07:37:23;;;;;;;2.60;1.70;;;8.20;99.90;;;;;;5041257;28;20218;-64
2022/01/21 07:39:49;;;;;;;2.13;1.20;;;8.20;99.90;;;;;;5062652;28;20214;-66
2022/01/21 07:42:18;;;;;;;6.37;2.10;;;8.20;99.90;;;;;;5060942;28;20196;-64
2022/01/21 07:44:44;;;;;;;4.03;1.60;;;8.20;99.90;;;;;;5027535;28;20222;-65
2022/01/21 07:47:11;;;;;;;2.63;1.50;;;8.30;99.90;;;;;;5044648;28;20192;-64
2022/01/21 07:49:37;;;;;;;4.10;1.67;;;8.30;99.90;;;;;;5045411;28;20183;-64
2022/01/21 07:52:04;;;;;;;3.90;1.40;;;8.30;99.90;;;;;;5045727;28;20480;-65
2022/01/21 07:54:30;;;;;;;6.00;1.50;;;8.30;99.90;;;;;;5043410;28;20176;-65
2022/01/21 07:56:56;;;;;;;4.63;1.60;;;8.30;99.90;;;;;;5045573;28;20192;-64
2022/01/21 07:59:23;;;;;;;5.77;2.30;;;8.30;99.90;;;;;;5028639;28;20199;-67
2022/01/21 08:01:49;;;;;;;3.57;1.63;;;8.30;99.90;;;;;;5045551;28;20261;-65
2022/01/21 08:04:15;;;;;;;2.50;1.47;;;8.40;99.90;;;;;;5059860;28;20608;-63
2022/01/21 08:06:42;;;;;;;4.27;1.67;;;8.40;99.90;;;;;;5039556;28;20706;-64
2022/01/21 08:09:08;;;;;;;3.53;1.70;;;8.40;99.90;;;;;;5044437;28;20284;-68
2022/01/21 08:11:35;;;;;;;5.57;1.90;;;8.40;99.90;;;;;;5042614;28;20267;-64
2022/01/21 08:14:01;;;;;;;3.20;1.77;;;8.50;99.90;;;;;;5038234;28;20707;-64
2022/01/21 08:16:27;;;;;;;3.63;1.87;;;8.50;99.90;;;;;;5054121;28;20230;-64
2022/01/21 08:18:54;;;;;;;4.37;1.63;;;8.50;99.90;;;;;;5062466;28;20191;-62
2022/01/21 08:21:21;;;;;;;3.43;1.40;;;8.50;99.90;;;;;;5045340;28;20215;-66
2022/01/21 08:23:52;;;;;;;1.90;1.37;;;8.50;99.90;;;;;;5044587;28;20207;-64
2022/01/21 08:26:27;;;;;;;2.93;1.57;;;8.60;99.90;;;;;;5035277;28;20187;-65
2022/01/21 08:28:56;;;;;;;4.17;1.90;;;8.50;99.90;;;;;;5041646;28;20658;-64
2022/01/21 08:31:24;;;;;;;6.53;1.87;;;8.50;99.90;;;;;;5027114;28;20219;-67
2022/01/21 08:33:51;;;;;;;4.67;1.97;;;8.60;99.90;;;;;;5045587;28;20191;-63
2022/01/21 08:36:23;;;;;;;4.17;2.03;;;8.60;99.90;;;;;;5053008;28;20253;-65
2022/01/21 08:38:51;;;;;;;4.00;1.50;;;8.70;99.90;;;;;;5041989;28;20237;-63
2022/01/21 08:41:20;;;;;;;3.80;1.90;;;8.70;99.90;;;;;;5043526;28;20227;-64
2022/01/21 08:43:47;;;;;;;2.50;1.73;;;8.70;99.90;;;;;;5058063;28;20187;-62
2022/01/21 08:46:13;;;;;;;5.77;1.43;;;8.70;99.90;;;;;;5009624;28;20183;-64
2022/01/21 08:48:40;;;;;;;3.27;1.53;;;8.80;99.90;;;;;;5057262;28;20855;-65
2022/01/21 08:51:11;;;;;;;2.70;1.60;;;8.80;99.90;;;;;;5042313;28;20199;-65
2022/01/21 08:53:39;;;;;;;5.27;1.70;;;8.80;99.90;;;;;;5047295;28;21728;-65
2022/01/21 08:56:11;;;;;;;5.33;1.90;;;8.80;99.90;;;;;;5028376;28;20206;-67
2022/01/21 08:58:39;;;;;;;4.47;1.53;;;8.90;99.90;;;;;;5043406;28;20203;-65
2022/01/21 09:01:06;;;;;;;5.87;1.70;;;8.90;99.90;;;;;;5024032;28;20308;-64
2022/01/21 09:03:33;;;;;;;3.27;1.67;;;8.90;99.90;;;;;;5026420;28;20880;-64
2022/01/21 09:06:00;;;;;;;4.33;1.77;;;8.90;99.90;;;;;;5045336;28;20244;-63
2022/01/21 09:08:30;;;;;;;3.13;1.50;;;8.90;99.90;;;;;;5010812;28;20652;-62
2022/01/21 09:11:02;;;;;;;4.77;1.80;;;8.90;99.90;;;;;;5047378;28;20730;-64
2022/01/21 09:13:31;;;;;;;3.13;1.63;;;8.80;99.90;;;;;;5052995;28;20803;-64
2022/01/21 09:16:01;;;;;;;3.03;1.67;;;8.90;99.90;;;;;;5062606;28;20211;-64
2022/01/21 09:18:45;;;;;;;2.73;1.70;;;8.90;99.90;;;;;;5040147;28;20192;-62
2022/01/21 09:21:17;;;;;;;5.73;1.57;;;8.90;99.90;;;;;;5062709;28;20225;-64
2022/01/21 09:23:49;;;;;;;2.20;1.70;;;8.90;99.90;;;;;;5050322;28;20223;-63
2022/01/21 09:26:22;;;;;;;2.20;1.50;;;8.90;99.90;;;;;;5050671;28;20199;-65
2022/01/21 09:28:50;;;;;;;4.43;1.53;;;8.90;99.90;;;;;;5035199;28;21974;-65
2022/01/21 09:31:18;;;;;;;4.83;1.80;;;8.90;99.90;;;;;;5049143;28;20195;-67
2022/01/21 09:33:46;;;;;;;3.53;1.73;;;8.90;99.90;;;;;;5046449;28;20242;-64
2022/01/21 09:36:13;;;;;;;4.70;1.50;;;9.00;99.90;;;;;;5064188;28;20287;-64
2022/01/21 09:38:40;;;;;;;5.07;1.57;;;9.00;99.90;;;;;;5065670;28;20233;-64
2022/01/21 09:41:09;;;;;;;3.90;1.60;;;9.00;99.90;;;;;;5060034;28;20321;-65
2022/01/21 09:43:38;;;;;;;4.57;1.90;;;9.00;99.90;;;;;;5058628;28;20834;-65
2022/01/21 09:46:07;;;;;;;4.77;1.90;;;9.10;99.90;;;;;;5057646;28;20183;-65
2022/01/21 09:48:49;;;;;;;2.13;1.47;;;9.10;99.90;;;;;;5031557;28;20183;-64
2022/01/21 09:51:17;;;;;;;5.90;1.73;;;9.20;99.90;;;;;;5045816;28;20199;-66
2022/01/21 09:53:45;;;;;;;3.03;1.47;;;9.30;99.90;;;;;;5025349;28;20286;-65
2022/01/21 09:56:16;;;;;;;6.07;1.87;;;9.40;99.90;;;;;;5044969;28;20893;-69
2022/01/21 09:58:47;;;;;;;3.17;1.50;;;9.40;99.90;;;;;;5030567;28;20210;-69
2022/01/21 10:01:19;;;;;;;5.23;1.83;;;9.50;99.90;;;;;;5031651;28;20253;-66
2022/01/21 10:03:49;;;;;;;3.50;1.70;;;9.60;99.90;;;;;;5043973;28;20207;-66
2022/01/21 10:06:21;;;;;;;4.17;1.70;;;9.70;99.90;;;;;;5023988;28;20207;-66
2022/01/21 10:08:53;;;;;;;2.67;1.40;;;9.90;99.90;;;;;;5057238;28;20356;-66
2022/01/21 10:11:21;;;;;;;2.63;1.23;;;10.00;99.90;;;;;;5037897;28;20233;-65
2022/01/21 10:13:49;;;;;;;3.13;1.43;;;10.10;99.90;;;;;;5041628;28;20215;-65
2022/01/21 10:16:17;;;;;;;4.10;1.50;;;10.10;99.90;;;;;;5030825;28;20207;-67
2022/01/21 10:19:05;;;;;;;4.50;1.57;;;10.20;99.90;;;;;;5027472;28;20207;-65
2022/01/21 10:21:36;;;;;;;3.87;1.50;;;10.20;99.90;;;;;;5041523;28;20227;-66
2022/01/21 10:24:15;;;;;;;4.07;1.70;;;10.20;99.90;;;;;;5041217;28;20690;-66
2022/01/21 10:26:54;;;;;;;3.70;1.57;;;10.30;99.90;;;;;;5042611;28;20310;-66
2022/01/21 10:29:22;;;;;;;8.00;1.60;;;10.30;99.90;;;;;;5042046;28;20206;-65
2022/01/21 10:31:59;;;;;;;3.77;1.83;;;10.30;99.90;;;;;;5053726;28;20207;-67
2022/01/21 10:34:46;;;;;;;1.77;1.27;;;10.30;99.90;;;;;;5039562;28;20221;-66
2022/01/21 10:37:26;;;;;;;2.90;1.50;;;10.30;99.90;;;;;;5035957;28;20230;-67
2022/01/21 10:40:04;;;;;;;4.10;1.63;;;10.30;99.90;;;;;;5055839;28;20215;-67
2022/01/21 10:42:31;;;;;;;4.20;1.50;;;10.30;99.90;;;;;;5029641;28;20758;-66
2022/01/21 10:45:00;;;;;;;4.80;1.40;;;10.30;99.90;;;;;;5042714;28;20204;-65
2022/01/21 10:47:40;;;;;;;4.30;1.27;;;10.30;99.90;;;;;;5042262;28;20310;-66
2022/01/21 10:50:13;;;;;;;2.27;1.30;;;10.30;99.90;;;;;;5037153;28;20279;-67
2022/01/21 10:52:52;;;;;;;1.73;0.93;;;10.30;99.90;;;;;;5063077;28;20254;-64
2022/01/21 10:55:38;;;;;;;2.13;1.10;;;10.30;99.90;;;;;;5044730;28;20326;-67
2022/01/21 10:58:16;;;;;;;2.67;1.20;;;10.30;99.90;;;;;;5047785;28;20252;-67
2022/01/21 11:01:03;;;;;;;3.90;1.30;;;10.40;99.90;;;;;;5061372;28;20582;-68
2022/01/21 11:03:31;;;;;;;2.80;1.20;;;10.30;99.90;;;;;;5028936;28;20797;-65
2022/01/21 11:06:14;;;;;;;2.07;1.40;;;10.40;99.90;;;;;;5045052;28;20192;-65
2022/01/21 11:08:41;;;;;;;1.87;1.30;;;10.40;99.90;;;;;;5028271;28;20592;-64
2022/01/21 11:11:07;;;;;;;3.97;1.40;;;10.50;99.90;;;;;;5046885;28;20227;-67
2022/01/21 11:13:40;;;;;;;1.50;1.20;;;10.50;99.90;;;;;;5044895;28;20808;-66
2022/01/21 11:16:24;;;;;;;1.53;1.23;;;10.50;99.90;;;;;;5047024;28;20738;-67
2022/01/21 11:19:10;;;;;;;1.87;1.13;;;10.60;99.90;;;;;;5054808;28;20191;-66
2022/01/21 11:21:52;;;;;;;1.60;1.20;;;11.00;99.90;;;;;;5009305;28;20252;-65
2022/01/21 11:24:22;;;;;;;3.30;1.10;;;11.30;99.90;;;;;;5035276;28;20332;-64
2022/01/21 11:27:09;;;;;;;2.77;1.10;;;11.40;99.90;;;;;;5010010;28;20428;-65
2022/01/21 11:29:36;;;;;;;3.67;1.37;;;11.40;99.90;;;;;;5031416;28;20219;-66
2022/01/21 11:32:05;;;;;;;1.70;1.00;;;11.50;99.90;;;;;;5055910;28;20789;-66
2022/01/21 11:34:33;;;;;;;2.00;1.20;;;11.40;99.90;;;;;;5051757;28;20223;-67
2022/01/21 11:37:01;;;;;;;5.57;1.33;;;11.30;99.90;;;;;;5039410;28;20212;-65
2022/01/21 11:39:29;;;;;;;2.83;1.43;;;11.20;99.90;;;;;;5055894;28;20234;-65
2022/01/21 11:41:58;;;;;;;5.20;1.50;;;11.20;99.90;;;;;;5058454;28;20412;-66
2022/01/21 11:44:28;;;;;;;2.40;1.23;;;11.10;99.90;;;;;;5028047;28;20314;-66
2022/01/21 11:49:35;;;;;;;6.03;1.50;;;11.00;99.90;;;;;;5049858;28;20238;-66
2022/01/21 11:52:18;;;;;;;2.17;1.30;;;10.90;99.90;;;;;;5055214;28;20187;-66
2022/01/21 11:54:49;;;;;;;1.20;1.10;;;10.90;99.90;;;;;;5061103;28;20192;-65
2022/01/21 11:57:27;;;;;;;1.53;1.10;;;10.90;99.90;;;;;;5030297;28;20781;-65
2022/01/21 12:00:17;;;;;;;3.20;1.47;;;10.90;99.90;;;;;;5037354;28;20646;-66
2022/01/21 12:02:49;;;;;;;3.13;1.10;;;10.80;99.90;;;;;;5030528;28;20645;-66
2022/01/21 12:05:26;;;;;;;3.10;1.33;;;10.80;99.90;;;;;;5040093;28;20211;-67
2022/01/21 12:07:54;;;;;;;1.30;1.00;;;10.80;99.90;;;;;;5029804;28;20625;-65
2022/01/21 12:10:25;;;;;;;2.33;1.27;;;11.00;99.90;;;;;;5030250;28;20230;-66
2022/01/21 12:12:55;;;;;;;2.17;1.20;;;11.00;99.90;;;;;;5029752;28;20432;-65
2022/01/21 12:15:32;;;;;;;2.03;1.13;;;11.00;99.90;;;;;;5022513;28;20198;-64
2022/01/21 12:21:01;;;;;;;3.57;1.07;;;11.10;99.90;;;;;;5053012;28;20222;-65
2022/01/21 12:23:31;;;;;;;3.73;1.30;;;11.00;99.90;;;;;;5038034;28;20273;-66
2022/01/21 12:26:19;;;;;;;1.20;1.00;;;11.10;99.90;;;;;;5055617;28;20603;-64
2022/01/21 12:29:07;;;;;;;1.93;1.17;;;11.10;99.90;;;;;;5036017;28;20294;-67
2022/01/21 12:31:49;;;;;;;3.80;1.80;;;11.00;99.90;;;;;;5023151;28;20224;-65
2022/01/21 12:34:16;;;;;;;2.67;1.27;;;11.00;99.90;;;;;;5031278;28;20217;-65
2022/01/21 12:36:51;;;;;;;2.63;1.40;;;11.00;99.90;;;;;;5056859;28;20207;-66
2022/01/21 12:39:43;;;;;;;1.83;1.20;;;11.00;99.90;;;;;;5046881;28;20194;-65
2022/01/21 12:42:31;;;;;;;2.53;1.40;;;11.00;99.90;;;;;;5027011;28;20512;-65
2022/01/21 12:45:07;;;;;;;2.50;1.20;;;11.10;99.90;;;;;;5039771;28;20179;-65
2022/01/21 12:47:43;;;;;;;2.00;1.30;;;11.00;99.90;;;;;;5045113;28;20301;-66
2022/01/21 12:50:48;;;;;;;6.13;1.20;;;11.00;99.90;;;;;;5053361;28;20198;-67
2022/01/21 12:53:23;;;;;;;2.27;1.30;;;11.00;99.90;;;;;;5043516;28;20218;-66
2022/01/21 12:55:59;;;;;;;3.23;1.77;;;10.90;99.90;;;;;;5052413;28;20191;-65
2022/01/21 12:58:39;;;;;;;2.30;1.00;;;10.80;99.90;;;;;;5032072;28;20263;-65
2022/01/21 13:01:10;;;;;;;2.40;1.40;;;10.80;99.90;;;;;;5054172;28;20207;-68
2022/01/21 13:04:04;;;;;;;3.77;1.20;;;10.80;99.90;;;;;;5055580;28;20193;-68
2022/01/21 13:06:52;;;;;;;4.80;1.30;;;10.80;99.90;;;;;;5050724;28;20221;-65
2022/01/21 13:09:45;;;;;;;3.37;1.37;;;10.80;99.90;;;;;;5045324;28;20188;-69
2022/01/21 13:12:13;;;;;;;4.67;1.27;;;10.80;99.90;;;;;;5027066;28;20233;-66
2022/01/21 13:14:50;;;;;;;2.90;1.10;;;10.80;99.90;;;;;;5048704;28;20647;-65
2022/01/21 13:17:21;;;;;;;3.17;1.10;;;10.80;99.90;;;;;;5044073;28;20198;-66
2022/01/21 13:19:56;;;;;;;2.57;1.50;;;10.70;99.90;;;;;;5044444;28;20194;-67
2022/01/21 13:22:28;;;;;;;2.53;1.23;;;10.80;99.90;;;;;;5042361;28;20191;-66
2022/01/21 13:25:15;;;;;;;2.07;1.10;;;10.80;99.90;;;;;;5054457;28;20226;-66
2022/01/21 13:27:55;;;;;;;3.00;1.20;;;10.80;99.90;;;;;;5019518;28;20258;-65
2022/01/21 13:30:25;;;;;;;3.00;1.27;;;10.70;99.90;;;;;;5034538;28;20189;-68
2022/01/21 13:33:09;;;;;;;2.00;1.00;;;10.80;99.90;;;;;;5046764;28;20734;-68
2022/01/21 13:35:44;;;;;;;3.27;1.63;;;10.90;99.90;;;;;;5039261;28;20246;-68
2022/01/21 13:38:21;;;;;;;1.93;1.10;;;11.00;99.90;;;;;;5035309;28;20313;-67
2022/01/21 13:40:57;;;;;;;1.53;1.10;;;11.00;99.90;;;;;;5056295;28;20675;-67
2022/01/21 13:43:28;;;;;;;2.60;1.23;;;11.00;99.90;;;;;;5025233;28;20650;-67
2022/01/21 13:45:59;;;;;;;1.83;1.20;;;11.10;99.90;;;;;;5024732;28;20191;-65
2022/01/21 13:48:30;;;;;;;4.43;1.27;;;11.10;99.90;;;;;;5056863;28;20252;-65
2022/01/21 13:50:58;;;;;;;1.73;1.10;;;11.20;99.90;;;;;;5052452;28;20188;-67
2022/01/21 13:53:26;;;;;;;1.80;0.90;;;11.20;99.90;;;;;;5056113;28;20204;-65
2022/01/21 13:55:57;;;;;;;3.73;1.10;;;11.20;99.90;;;;;;5006036;28;20230;-66
2022/01/21 13:58:28;;;;;;;3.47;1.10;;;11.20;99.90;;;;;;5015465;28;20238;-65